Time;durP1;ratioP1;P1;durP2;ratioP2;P2;SDS_P1;SDS_P2;PMS_P1;PMS_P2;Temp;Humidity;BMP_temperature;BMP_pressure;BME280_temperature;BME280_humidity;BME280_pressure;Samples;Min_cycle;Max_cycle;Signal;HPM_P1;HPM_P2
2022/07/02 00:01:18;;;;;;;12.43;3.55;;;11.30;99.90;;;;;;4976644;28;20532;-74
2022/07/02 00:03:55;;;;;;;14.57;3.83;;;11.20;99.90;;;;;;4976386;28;20228;-75
2022/07/02 00:06:25;;;;;;;11.23;4.28;;;11.20;99.90;;;;;;4984445;28;20497;-73
2022/07/02 00:08:51;;;;;;;13.95;4.47;;;11.20;99.90;;;;;;4983375;28;20126;-73
2022/07/02 00:11:17;;;;;;;29.13;13.13;;;11.20;99.90;;;;;;4984079;28;20042;-73
2022/07/02 00:13:43;;;;;;;19.95;8.60;;;11.10;99.90;;;;;;4990989;28;20131;-73
2022/07/02 00:16:10;;;;;;;10.32;4.05;;;11.00;99.90;;;;;;4973214;28;20030;-73
2022/07/02 00:18:36;;;;;;;5.57;3.20;;;11.00;99.90;;;;;;4998849;28;20025;-74
2022/07/02 00:21:03;;;;;;;16.63;5.40;;;11.00;99.90;;;;;;4988525;28;20034;-74
2022/07/02 00:23:28;;;;;;;13.80;6.55;;;11.00;99.90;;;;;;4987568;28;20030;-74
2022/07/02 00:26:01;;;;;;;14.82;5.50;;;11.00;99.90;;;;;;4986022;28;20040;-73
2022/07/02 00:28:29;;;;;;;11.07;3.83;;;10.90;99.90;;;;;;4973010;28;20042;-74
2022/07/02 00:30:55;;;;;;;10.68;4.43;;;11.00;99.90;;;;;;5004667;28;20496;-73
2022/07/02 00:33:24;;;;;;;6.85;3.05;;;10.90;99.90;;;;;;4978040;28;20041;-74
2022/07/02 00:35:50;;;;;;;5.10;2.38;;;10.90;99.90;;;;;;4990754;28;20041;-73
2022/07/02 00:38:15;;;;;;;8.00;2.50;;;10.80;99.90;;;;;;4982114;28;20094;-73
2022/07/02 00:40:42;;;;;;;8.05;2.63;;;10.80;99.90;;;;;;5001949;28;20124;-73
2022/07/02 00:43:09;;;;;;;12.18;2.30;;;10.70;99.90;;;;;;4998397;28;20041;-74
2022/07/02 00:45:35;;;;;;;8.00;2.28;;;10.80;99.90;;;;;;5002383;28;20491;-73
2022/07/02 00:48:01;;;;;;;7.40;2.58;;;10.80;99.90;;;;;;4983674;28;20038;-73
2022/07/02 00:50:27;;;;;;;9.10;3.35;;;10.90;99.90;;;;;;4973734;28;20040;-74
2022/07/02 00:52:53;;;;;;;9.15;2.38;;;10.90;99.90;;;;;;4980150;28;20034;-74
2022/07/02 00:55:18;;;;;;;9.10;2.13;;;10.90;99.90;;;;;;4990540;28;20071;-74
2022/07/02 00:57:48;;;;;;;8.68;2.45;;;10.90;99.90;;;;;;4969424;28;20047;-73
2022/07/02 01:00:18;;;;;;;6.97;1.90;;;11.00;99.90;;;;;;4982896;28;20101;-73
2022/07/02 01:02:45;;;;;;;7.90;3.03;;;10.90;99.90;;;;;;4975387;28;20030;-73
2022/07/02 01:05:17;;;;;;;11.02;2.72;;;10.90;99.90;;;;;;4982072;28;20046;-73
2022/07/02 01:07:46;;;;;;;8.75;2.40;;;10.80;99.90;;;;;;4994751;28;20041;-73
2022/07/02 01:10:17;;;;;;;10.50;2.40;;;10.80;99.90;;;;;;4991345;28;20072;-74
2022/07/02 01:12:48;;;;;;;6.30;2.50;;;10.80;99.90;;;;;;4988217;28;20554;-74
2022/07/02 01:15:15;;;;;;;4.85;1.92;;;10.70;99.90;;;;;;4987269;28;20298;-74
2022/07/02 01:17:41;;;;;;;2.20;1.75;;;10.60;99.90;;;;;;5001557;28;20026;-74
2022/07/02 01:20:08;;;;;;;6.97;2.60;;;10.50;99.90;;;;;;5001538;28;20524;-74
2022/07/02 01:22:35;;;;;;;4.28;2.00;;;10.50;99.90;;;;;;4991240;28;20042;-73
2022/07/02 01:25:01;;;;;;;10.55;2.47;;;10.50;99.90;;;;;;4982424;28;20131;-73
2022/07/02 01:27:27;;;;;;;12.48;2.58;;;10.60;99.90;;;;;;4993437;28;20272;-73
2022/07/02 01:29:53;;;;;;;6.57;2.05;;;10.60;99.90;;;;;;4999969;28;20205;-74
2022/07/02 01:32:19;;;;;;;9.02;2.10;;;10.60;99.90;;;;;;4986694;28;20311;-74
2022/07/02 01:34:51;;;;;;;5.10;2.42;;;10.60;99.90;;;;;;5000456;28;20029;-73
2022/07/02 01:37:18;;;;;;;4.75;2.10;;;10.50;99.90;;;;;;4984557;28;20125;-73
2022/07/02 01:39:45;;;;;;;9.57;2.50;;;10.50;99.90;;;;;;4982077;28;20034;-73
2022/07/02 01:42:12;;;;;;;5.88;1.63;;;10.50;99.90;;;;;;4968258;28;20760;-74
2022/07/02 01:44:38;;;;;;;3.83;2.00;;;10.50;99.90;;;;;;4997095;28;20116;-73
2022/07/02 01:47:09;;;;;;;7.25;2.30;;;10.40;99.90;;;;;;4997681;28;20041;-74
2022/07/02 01:49:36;;;;;;;7.72;2.30;;;10.30;99.90;;;;;;5001813;28;20497;-74
2022/07/02 01:52:03;;;;;;;6.03;2.17;;;10.20;99.90;;;;;;4979350;28;20064;-75
2022/07/02 01:54:29;;;;;;;3.80;1.83;;;10.10;99.90;;;;;;4960588;28;20149;-74
2022/07/02 01:56:55;;;;;;;7.53;1.90;;;9.90;99.90;;;;;;4996283;28;20584;-74
2022/07/02 01:59:21;;;;;;;4.82;2.00;;;9.80;99.90;;;;;;4968808;28;20038;-74
2022/07/02 02:01:47;;;;;;;5.28;2.15;;;9.70;99.90;;;;;;4978425;28;20413;-74
2022/07/02 02:04:13;;;;;;;5.30;2.53;;;9.70;99.90;;;;;;4989628;28;20387;-74
2022/07/02 02:06:39;;;;;;;10.90;2.63;;;9.70;99.90;;;;;;4993338;28;20136;-74
2022/07/02 02:09:05;;;;;;;6.82;2.50;;;9.70;99.90;;;;;;5001941;28;20128;-74
2022/07/02 02:11:31;;;;;;;12.15;2.85;;;9.80;99.90;;;;;;4991543;28;20036;-74
2022/07/02 02:14:00;;;;;;;6.63;3.13;;;9.90;99.90;;;;;;4993535;28;20345;-74
2022/07/02 02:16:27;;;;;;;5.97;2.60;;;10.10;99.90;;;;;;4998258;28;20057;-74
2022/07/02 02:18:53;;;;;;;6.43;2.35;;;10.20;99.90;;;;;;4979482;28;20052;-74
2022/07/02 02:21:19;;;;;;;12.05;3.30;;;10.20;99.90;;;;;;4995812;28;20037;-74
2022/07/02 02:23:45;;;;;;;5.00;2.55;;;10.30;99.90;;;;;;4992621;28;20804;-74
2022/07/02 02:26:11;;;;;;;10.43;3.17;;;10.30;99.90;;;;;;4989561;28;20034;-74
2022/07/02 02:28:36;;;;;;;6.97;2.15;;;10.30;99.90;;;;;;4966936;28;20058;-74
2022/07/02 02:31:02;;;;;;;7.15;2.33;;;10.30;99.90;;;;;;4982082;28;20469;-74
2022/07/02 02:33:28;;;;;;;7.05;2.28;;;10.30;99.90;;;;;;4980590;28;20041;-75
2022/07/02 02:35:53;;;;;;;10.05;3.13;;;10.20;99.90;;;;;;4977205;28;20054;-74
2022/07/02 02:38:19;;;;;;;13.70;3.10;;;10.20;99.90;;;;;;4994322;28;20033;-74
2022/07/02 02:40:45;;;;;;;7.57;3.40;;;10.10;99.90;;;;;;4999108;28;20408;-74
2022/07/02 02:43:11;;;;;;;10.18;3.05;;;10.10;99.90;;;;;;4981239;28;20563;-74
2022/07/02 02:45:36;;;;;;;8.75;3.30;;;10.20;99.90;;;;;;5000994;28;20056;-75
2022/07/02 02:48:02;;;;;;;8.70;4.18;;;10.20;99.90;;;;;;4987447;28;20141;-75
2022/07/02 02:50:28;;;;;;;11.88;3.88;;;10.20;99.90;;;;;;4986858;28;20022;-74
2022/07/02 02:52:54;;;;;;;7.53;3.60;;;10.20;99.90;;;;;;4994452;28;20523;-75
2022/07/02 02:55:19;;;;;;;10.48;3.20;;;10.30;99.90;;;;;;4999217;28;20153;-75
2022/07/02 02:57:45;;;;;;;10.73;3.67;;;10.40;99.90;;;;;;4994304;28;20052;-74
2022/07/02 03:00:11;;;;;;;7.43;3.42;;;10.40;99.90;;;;;;4983815;28;20316;-75
2022/07/02 03:02:37;;;;;;;5.95;2.92;;;10.40;99.90;;;;;;4987016;28;20037;-74
2022/07/02 03:05:02;;;;;;;12.35;3.63;;;10.40;99.90;;;;;;4980615;28;20098;-74
2022/07/02 03:07:28;;;;;;;11.40;3.13;;;10.50;99.90;;;;;;4997220;28;20033;-75
2022/07/02 03:09:54;;;;;;;5.63;2.90;;;10.50;99.90;;;;;;5000032;28;20311;-72
2022/07/02 03:12:19;;;;;;;11.23;3.42;;;10.50;99.90;;;;;;4998370;28;20172;-72
2022/07/02 03:14:45;;;;;;;6.85;2.78;;;10.50;99.90;;;;;;4998274;28;20030;-72
2022/07/02 03:17:11;;;;;;;6.65;3.03;;;10.50;99.90;;;;;;4981288;28;20117;-73
2022/07/02 03:19:36;;;;;;;6.35;2.63;;;10.40;99.90;;;;;;4999326;28;20508;-72
2022/07/02 03:22:02;;;;;;;9.10;2.92;;;10.50;99.90;;;;;;4999164;28;20041;-72
2022/07/02 03:24:28;;;;;;;10.02;3.03;;;10.60;99.90;;;;;;4999310;28;20061;-73
2022/07/02 03:26:53;;;;;;;7.57;2.85;;;10.60;99.90;;;;;;4992790;28;20057;-73
2022/07/02 03:29:19;;;;;;;4.85;2.85;;;10.70;99.90;;;;;;4994953;28;20021;-72
2022/07/02 03:31:45;;;;;;;8.25;2.90;;;10.70;99.90;;;;;;4990683;28;20026;-72
2022/07/02 03:34:11;;;;;;;5.03;2.53;;;10.80;99.90;;;;;;4994998;28;20084;-72
2022/07/02 03:36:36;;;;;;;7.78;3.30;;;10.80;99.90;;;;;;4994643;28;20033;-72
2022/07/02 03:39:02;;;;;;;6.00;2.90;;;10.80;99.90;;;;;;4998758;28;20088;-72
2022/07/02 03:41:28;;;;;;;3.53;2.42;;;10.80;99.90;;;;;;4998947;28;20045;-72
2022/07/02 03:43:53;;;;;;;6.93;4.95;;;10.80;99.90;;;;;;4995654;28;20540;-72
2022/07/02 03:46:19;;;;;;;5.65;2.58;;;10.70;99.90;;;;;;4999180;28;20125;-72
2022/07/02 03:48:44;;;;;;;10.77;2.90;;;10.60;99.90;;;;;;4998251;28;20103;-72
2022/07/02 03:51:10;;;;;;;11.05;2.97;;;10.60;99.90;;;;;;4998293;28;20108;-72
2022/07/02 03:53:36;;;;;;;3.00;2.60;;;10.50;99.90;;;;;;4998321;28;20069;-72
2022/07/02 03:56:02;;;;;;;5.63;2.28;;;10.50;99.90;;;;;;4998514;28;20054;-72
2022/07/02 03:58:30;;;;;;;9.30;2.35;;;10.50;99.90;;;;;;4965880;28;20031;-72
2022/07/02 04:00:56;;;;;;;3.78;1.95;;;10.40;99.90;;;;;;4998630;28;20104;-72
2022/07/02 04:03:22;;;;;;;5.10;2.30;;;10.30;99.90;;;;;;4999101;28;20486;-72
2022/07/02 04:05:48;;;;;;;6.45;2.85;;;10.30;99.90;;;;;;4992817;28;20049;-72
2022/07/02 04:08:13;;;;;;;5.78;2.63;;;10.30;99.90;;;;;;4980752;28;20148;-72
2022/07/02 04:10:39;;;;;;;12.10;3.33;;;10.30;99.90;;;;;;4997711;28;20686;-73
2022/07/02 04:13:05;;;;;;;7.30;2.42;;;10.30;99.90;;;;;;4985416;28;20084;-72
2022/07/02 04:15:30;;;;;;;9.98;3.40;;;10.30;99.90;;;;;;5003536;28;20099;-72
2022/07/02 04:17:56;;;;;;;10.05;3.00;;;10.30;99.90;;;;;;5002293;28;20105;-72
2022/07/02 04:20:22;;;;;;;8.55;2.60;;;10.30;99.90;;;;;;4998830;28;20670;-72
2022/07/02 04:22:47;;;;;;;5.20;2.40;;;10.50;99.90;;;;;;4981861;28;20034;-73
2022/07/02 04:25:13;;;;;;;8.75;2.22;;;10.50;99.90;;;;;;5002232;28;20034;-72
2022/07/02 04:27:39;;;;;;;6.85;2.00;;;10.80;99.90;;;;;;4983577;28;20105;-72
2022/07/02 04:30:05;;;;;;;6.20;2.72;;;10.90;99.90;;;;;;4997641;28;20092;-72
2022/07/02 04:32:31;;;;;;;6.13;1.98;;;11.00;99.90;;;;;;5000605;28;20121;-72
2022/07/02 04:34:56;;;;;;;6.80;1.83;;;11.00;99.90;;;;;;4990392;28;20132;-72
2022/07/02 04:37:22;;;;;;;6.68;2.05;;;10.90;99.90;;;;;;4980636;28;20034;-72
2022/07/02 04:39:48;;;;;;;5.85;2.10;;;10.90;99.90;;;;;;4984951;28;20034;-72
2022/07/02 04:42:13;;;;;;;12.63;2.00;;;10.90;99.90;;;;;;4978235;28;20304;-72
2022/07/02 04:44:39;;;;;;;7.82;2.33;;;11.10;99.90;;;;;;4976765;28;20038;-72
2022/07/02 04:47:05;;;;;;;11.35;1.75;;;11.30;99.90;;;;;;4984442;28;20505;-72
2022/07/02 04:49:32;;;;;;;9.32;1.95;;;11.50;99.90;;;;;;4983271;28;20058;-73
2022/07/02 04:51:59;;;;;;;4.28;1.45;;;11.60;99.90;;;;;;4994786;28;20053;-73
2022/07/02 04:54:24;;;;;;;5.22;1.70;;;11.80;99.90;;;;;;5001796;28;20122;-73
2022/07/02 04:56:50;;;;;;;4.93;1.73;;;11.90;99.90;;;;;;5002522;28;20068;-73
2022/07/02 04:59:16;;;;;;;9.00;1.65;;;12.10;99.90;;;;;;4982559;28;20125;-72
2022/07/02 05:01:41;;;;;;;3.58;1.30;;;12.10;99.90;;;;;;5000422;28;20029;-73
2022/07/02 05:04:07;;;;;;;3.83;1.30;;;12.10;99.90;;;;;;5001934;28;20497;-72
2022/07/02 05:06:33;;;;;;;10.38;2.33;;;12.10;99.90;;;;;;4984223;28;20043;-73
2022/07/02 05:08:58;;;;;;;8.85;1.45;;;12.20;99.90;;;;;;4978636;28;20452;-72
2022/07/02 05:11:24;;;;;;;2.33;0.93;;;12.20;99.90;;;;;;4993324;28;20034;-72
2022/07/02 05:13:50;;;;;;;7.95;1.35;;;12.30;99.90;;;;;;5000898;28;20029;-73
2022/07/02 05:16:16;;;;;;;3.88;1.25;;;12.40;99.90;;;;;;5000985;28;20037;-72
2022/07/02 05:18:42;;;;;;;7.15;1.92;;;12.50;99.90;;;;;;4983278;28;20450;-73
2022/07/02 05:21:08;;;;;;;1.75;0.88;;;12.60;99.90;;;;;;4989629;28;20040;-72
2022/07/02 05:23:34;;;;;;;3.63;1.08;;;12.50;99.90;;;;;;4994668;28;20034;-73
2022/07/02 05:26:00;;;;;;;6.57;1.33;;;12.50;99.90;;;;;;4999232;28;20512;-73
2022/07/02 05:28:27;;;;;;;4.88;1.25;;;12.50;99.90;;;;;;4982350;28;20063;-73
2022/07/02 05:30:53;;;;;;;6.50;1.23;;;12.50;99.90;;;;;;4987969;28;20026;-72
2022/07/02 05:33:19;;;;;;;8.65;1.40;;;12.50;99.90;;;;;;4976681;28;20049;-73
2022/07/02 05:35:45;;;;;;;6.70;1.10;;;12.70;99.90;;;;;;4989338;28;20556;-73
2022/07/02 05:38:11;;;;;;;2.70;0.85;;;12.80;99.90;;;;;;4994635;28;20042;-72
2022/07/02 05:40:37;;;;;;;3.33;0.80;;;12.90;99.90;;;;;;5001501;28;20025;-73
2022/07/02 05:43:02;;;;;;;4.75;0.70;;;13.00;99.90;;;;;;4990062;28;20129;-73
2022/07/02 05:45:28;;;;;;;3.88;0.88;;;13.20;99.90;;;;;;4990904;28;20022;-73
2022/07/02 05:47:54;;;;;;;3.22;0.73;;;13.40;99.90;;;;;;4991157;28;20128;-72
2022/07/02 05:50:20;;;;;;;8.60;0.90;;;13.50;99.90;;;;;;4995906;28;20014;-73
2022/07/02 05:52:46;;;;;;;1.88;0.30;;;13.70;99.90;;;;;;4973636;28;20038;-73
2022/07/02 05:55:12;;;;;;;4.28;0.55;;;14.00;99.90;;;;;;4993593;28;20145;-73
2022/07/02 05:57:38;;;;;;;2.88;0.47;;;14.10;99.90;;;;;;4976528;28;20468;-72
2022/07/02 06:00:09;;;;;;;3.92;0.88;;;14.20;99.90;;;;;;4991294;28;20643;-73
2022/07/02 06:02:35;;;;;;;5.07;0.55;;;14.30;99.90;;;;;;4991231;28;20026;-72
2022/07/02 06:07:38;;;;;;;3.60;0.70;;;14.40;99.90;;;;;;4991219;28;20061;-73
2022/07/02 06:07:50;;;;;;;4.22;0.63;;;14.50;99.90;;;;;;4993684;28;20038;-72
2022/07/02 06:10:18;;;;;;;1.55;0.40;;;14.50;99.90;;;;;;4990537;28;20087;-73
2022/07/02 06:12:49;;;;;;;3.20;0.47;;;14.60;99.90;;;;;;4990017;28;20485;-73
2022/07/02 06:15:15;;;;;;;3.65;0.70;;;14.70;99.90;;;;;;4988631;28;20029;-73
2022/07/02 06:17:41;;;;;;;3.53;0.50;;;14.80;99.90;;;;;;4987919;28;20136;-73
2022/07/02 06:20:08;;;;;;;1.98;0.60;;;14.90;99.90;;;;;;4993359;28;20216;-73
2022/07/02 06:22:33;;;;;;;3.40;0.55;;;14.90;99.90;;;;;;4994287;28;20220;-73
2022/07/02 06:24:59;;;;;;;3.22;0.52;;;15.10;99.90;;;;;;4991233;28;20056;-73
2022/07/02 06:27:24;;;;;;;6.75;0.77;;;15.20;99.90;;;;;;4970639;28;20069;-73
2022/07/02 06:29:50;;;;;;;2.72;0.55;;;15.20;99.90;;;;;;4985162;28;20503;-73
2022/07/02 06:32:16;;;;;;;2.05;0.30;;;15.30;99.90;;;;;;4988249;28;20030;-73
2022/07/02 06:34:43;;;;;;;1.00;0.20;;;15.30;99.90;;;;;;4988098;28;20045;-72
2022/07/02 06:37:09;;;;;;;2.83;0.30;;;15.40;99.90;;;;;;4974536;28;20025;-73
2022/07/02 06:39:36;;;;;;;2.03;0.60;;;15.40;99.90;;;;;;4969271;28;20034;-73
2022/07/02 06:45:00;;;;;;;1.35;0.57;;;15.50;99.90;;;;;;4953006;28;20553;-72
2022/07/02 06:47:27;;;;;;;1.55;0.40;;;15.50;99.90;;;;;;4987243;28;20037;-73
2022/07/02 06:49:55;;;;;;;4.43;0.45;;;15.60;99.90;;;;;;4971266;28;20030;-72
2022/07/02 06:52:22;;;;;;;1.92;0.50;;;15.70;99.90;;;;;;4992880;28;20072;-73
2022/07/02 06:54:48;;;;;;;2.50;0.47;;;15.70;99.90;;;;;;4969795;28;20030;-72
2022/07/02 06:57:13;;;;;;;0.85;0.40;;;15.80;99.90;;;;;;4985833;28;20520;-74
2022/07/02 06:59:39;;;;;;;2.28;0.30;;;15.80;99.90;;;;;;4971106;28;20033;-73
2022/07/02 07:02:06;;;;;;;2.45;0.40;;;15.90;99.90;;;;;;4984367;28;20106;-73
2022/07/02 07:04:33;;;;;;;2.65;0.35;;;16.00;99.90;;;;;;4982854;28;20038;-72
2022/07/02 07:07:03;;;;;;;1.50;0.35;;;16.00;99.90;;;;;;4975632;28;20026;-73
2022/07/02 07:09:28;;;;;;;1.42;0.30;;;16.00;99.90;;;;;;4986142;28;20112;-72
2022/07/02 07:11:54;;;;;;;2.85;0.30;;;16.10;99.90;;;;;;4987520;28;20075;-73
2022/07/02 07:14:21;;;;;;;2.10;0.30;;;16.20;99.90;;;;;;4989175;28;20037;-73
2022/07/02 07:16:46;;;;;;;2.40;0.30;;;16.20;99.90;;;;;;4989610;28;20065;-73
2022/07/02 07:19:12;;;;;;;2.05;0.40;;;16.30;99.90;;;;;;4968929;28;20030;-72
2022/07/02 07:21:39;;;;;;;1.48;0.30;;;16.60;99.90;;;;;;4969179;28;20037;-73
2022/07/02 07:24:06;;;;;;;1.80;0.40;;;16.90;99.90;;;;;;4967817;28;20208;-72
2022/07/02 07:26:33;;;;;;;2.63;0.38;;;17.00;99.90;;;;;;4985077;28;20034;-73
2022/07/02 07:29:00;;;;;;;1.17;0.40;;;17.00;99.90;;;;;;4987643;28;20037;-72
2022/07/02 07:31:26;;;;;;;0.43;0.20;;;17.20;99.90;;;;;;4969825;28;20185;-73
2022/07/02 07:33:53;;;;;;;1.92;0.88;;;17.60;99.90;;;;;;4987021;28;20025;-74
2022/07/02 07:36:20;;;;;;;1.23;0.30;;;19.70;99.90;;;;;;4985537;28;20026;-74
2022/07/02 07:38:47;;;;;;;2.47;0.40;;;23.70;82.50;;;;;;4990748;28;20033;-74
2022/07/02 07:41:13;;;;;;;1.83;0.30;;;27.50;58.20;;;;;;4968541;28;20033;-73
2022/07/02 07:43:39;;;;;;;1.85;0.30;;;29.90;46.20;;;;;;4983346;28;20030;-74
2022/07/02 07:46:04;;;;;;;0.68;0.10;;;31.40;43.10;;;;;;4987152;28;20354;-73
2022/07/02 07:48:30;;;;;;;0.68;0.30;;;33.30;39.00;;;;;;4965053;28;20542;-74
2022/07/02 07:50:56;;;;;;;1.10;0.30;;;34.30;34.70;;;;;;4988979;28;20045;-74
2022/07/02 07:53:21;;;;;;;1.80;0.55;;;35.80;34.90;;;;;;4989725;28;20040;-73
2022/07/02 07:55:48;;;;;;;2.88;0.40;;;37.40;33.40;;;;;;4984871;28;20041;-74
2022/07/02 07:58:14;;;;;;;1.70;0.30;;;37.30;30.20;;;;;;4969219;28;20080;-73
2022/07/02 08:00:40;;;;;;;1.25;0.43;;;36.80;30.90;;;;;;4986003;28;20038;-74
2022/07/02 08:03:06;;;;;;;2.05;0.40;;;35.60;31.30;;;;;;4982133;28;20045;-73
2022/07/02 08:05:31;;;;;;;1.73;0.32;;;37.00;31.70;;;;;;4983357;28;20077;-73
2022/07/02 08:07:57;;;;;;;2.28;0.20;;;37.10;32.10;;;;;;4979418;28;20141;-73
2022/07/02 08:10:23;;;;;;;1.27;0.38;;;38.40;30.40;;;;;;4977091;28;20039;-74
2022/07/02 08:12:50;;;;;;;2.63;0.25;;;35.80;29.90;;;;;;4978477;28;20046;-74
2022/07/02 08:15:15;;;;;;;0.82;0.50;;;34.60;34.80;;;;;;4956586;28;20835;-73
2022/07/02 08:17:42;;;;;;;2.70;0.40;;;35.20;33.90;;;;;;4974198;28;20721;-73
2022/07/02 08:20:08;;;;;;;1.17;0.45;;;37.10;32.00;;;;;;4978795;28;20042;-73
2022/07/02 08:22:35;;;;;;;1.02;0.28;;;35.50;31.50;;;;;;4964982;28;20624;-74
2022/07/02 08:25:02;;;;;;;2.38;0.20;;;35.30;32.70;;;;;;4978440;28;20033;-73
2022/07/02 08:27:28;;;;;;;1.23;0.30;;;34.60;33.20;;;;;;4975848;28;20096;-73
2022/07/02 08:29:54;;;;;;;2.85;0.68;;;32.90;35.00;;;;;;4985450;28;20120;-73
2022/07/02 08:32:20;;;;;;;1.58;0.30;;;32.80;38.40;;;;;;4973498;28;20029;-73
2022/07/02 08:34:46;;;;;;;4.20;0.40;;;34.30;35.70;;;;;;4970599;28;20029;-73
2022/07/02 08:37:11;;;;;;;0.68;0.20;;;35.90;33.80;;;;;;4968194;28;20099;-73
2022/07/02 08:39:37;;;;;;;2.33;0.30;;;36.70;31.10;;;;;;4985234;28;20030;-73
2022/07/02 08:42:05;;;;;;;2.05;0.40;;;37.20;32.10;;;;;;4985270;28;20084;-74
2022/07/02 08:44:32;;;;;;;1.08;0.30;;;37.80;31.70;;;;;;4981248;28;20096;-74
2022/07/02 08:46:59;;;;;;;1.48;0.20;;;38.10;32.80;;;;;;4987080;28;20040;-74
2022/07/02 08:49:26;;;;;;;2.28;0.60;;;38.10;29.40;;;;;;4965447;28;20070;-73
2022/07/02 08:54:22;;;;;;;2.88;0.32;;;38.10;31.40;;;;;;4982582;28;20033;-74
2022/07/02 08:56:50;;;;;;;3.33;0.45;;;37.60;29.00;;;;;;4964662;28;20354;-73
2022/07/02 08:59:17;;;;;;;1.75;0.20;;;36.90;30.30;;;;;;4984080;28;20018;-74
2022/07/02 09:01:43;;;;;;;1.20;0.30;;;37.60;30.30;;;;;;4987923;28;20038;-73
2022/07/02 09:04:09;;;;;;;1.35;0.28;;;36.80;30.20;;;;;;4987324;28;20089;-73
2022/07/02 09:06:37;;;;;;;1.73;0.20;;;35.30;30.30;;;;;;4984199;28;20356;-74
2022/07/02 09:09:03;;;;;;;0.55;0.28;;;35.00;32.60;;;;;;4981067;28;20702;-74
2022/07/02 09:11:30;;;;;;;2.75;0.40;;;34.40;33.30;;;;;;4990234;28;20441;-74
2022/07/02 09:13:57;;;;;;;1.45;0.30;;;33.90;32.10;;;;;;4967808;28;20036;-74
2022/07/02 09:16:23;;;;;;;2.38;0.50;;;33.30;36.50;;;;;;4985315;28;20053;-73
2022/07/02 09:18:49;;;;;;;1.92;0.20;;;33.30;37.10;;;;;;4996626;28;20030;-73
2022/07/02 09:21:14;;;;;;;2.08;0.30;;;32.60;38.50;;;;;;4987132;28;20033;-73
2022/07/02 09:23:47;;;;;;;1.83;0.38;;;32.90;39.00;;;;;;4990553;28;20032;-73
2022/07/02 09:26:19;;;;;;;1.45;0.30;;;31.80;38.60;;;;;;4996820;28;20142;-74
2022/07/02 09:29:11;;;;;;;1.48;0.10;;;31.70;39.90;;;;;;4988720;28;20116;-74
2022/07/02 09:31:48;;;;;;;1.67;0.30;;;31.90;40.10;;;;;;4985714;28;20262;-73
2022/07/02 09:34:27;;;;;;;2.35;0.40;;;30.80;39.00;;;;;;4993485;28;20183;-74
2022/07/02 09:36:54;;;;;;;2.58;0.57;;;29.90;42.70;;;;;;4994914;28;20523;-73
2022/07/02 09:39:31;;;;;;;1.38;0.20;;;30.30;39.80;;;;;;4997003;28;20069;-73
2022/07/02 09:41:58;;;;;;;0.77;0.13;;;30.40;39.10;;;;;;4970131;28;20050;-74
2022/07/02 09:44:25;;;;;;;1.05;0.25;;;30.70;37.80;;;;;;4994077;28;20076;-73
2022/07/02 09:46:51;;;;;;;0.63;0.10;;;30.80;40.30;;;;;;5008329;28;20028;-72
2022/07/02 09:49:17;;;;;;;3.00;0.52;;;30.80;37.40;;;;;;4984250;28;20042;-72
2022/07/02 09:51:52;;;;;;;1.02;0.15;;;30.50;40.50;;;;;;4978374;28;20060;-72
2022/07/02 09:54:22;;;;;;;1.95;0.20;;;30.60;39.50;;;;;;4997785;28;20069;-73
2022/07/02 09:56:56;;;;;;;1.02;0.32;;;31.70;42.20;;;;;;4996320;28;20040;-72
2022/07/02 09:59:22;;;;;;;1.73;0.30;;;31.40;35.30;;;;;;4994547;28;20507;-72
2022/07/02 10:01:48;;;;;;;3.97;0.20;;;31.20;40.10;;;;;;4969532;28;20026;-72
2022/07/02 10:04:14;;;;;;;2.13;0.10;;;31.40;37.40;;;;;;4990221;28;20762;-72
2022/07/02 10:06:43;;;;;;;1.88;0.10;;;31.30;37.60;;;;;;4980765;28;20100;-72
2022/07/02 10:09:11;;;;;;;2.78;0.38;;;32.00;40.40;;;;;;4991022;28;20040;-72
2022/07/02 10:11:37;;;;;;;0.95;0.00;;;31.10;34.10;;;;;;4999728;28;20033;-72
2022/07/02 10:14:04;;;;;;;0.70;0.10;;;30.80;37.10;;;;;;4977045;28;20038;-73
2022/07/02 10:16:30;;;;;;;1.05;0.20;;;31.70;36.60;;;;;;4973043;28;20061;-72
2022/07/02 10:18:58;;;;;;;0.75;0.25;;;31.60;36.50;;;;;;4998210;28;20080;-71
2022/07/02 10:21:24;;;;;;;2.22;0.30;;;31.10;34.20;;;;;;4988060;28;20045;-72
2022/07/02 10:23:51;;;;;;;0.85;0.17;;;30.70;34.60;;;;;;4984111;28;20105;-71
2022/07/02 10:26:17;;;;;;;2.25;0.20;;;30.80;37.00;;;;;;4970891;28;20519;-72
2022/07/02 10:28:43;;;;;;;0.65;0.20;;;30.50;37.50;;;;;;4983265;28;20045;-72
2022/07/02 10:31:17;;;;;;;1.55;0.28;;;29.40;37.30;;;;;;4941909;28;20041;-72
2022/07/02 10:34:06;;;;;;;4.07;0.40;;;30.00;40.50;;;;;;4995327;28;20041;-72
2022/07/02 10:36:32;;;;;;;1.65;0.20;;;29.50;35.20;;;;;;4959168;28;20266;-73
2022/07/02 10:39:00;;;;;;;0.47;0.20;;;29.20;38.50;;;;;;4993130;28;20034;-72
2022/07/02 10:41:28;;;;;;;1.00;0.10;;;29.30;38.50;;;;;;4964748;28;20120;-72
2022/07/02 10:43:56;;;;;;;1.27;0.25;;;30.10;45.30;;;;;;4978236;28;20898;-72
2022/07/02 10:46:24;;;;;;;0.93;0.15;;;30.70;46.00;;;;;;4978710;28;20030;-72
2022/07/02 10:48:52;;;;;;;0.43;0.10;;;30.80;39.80;;;;;;4972904;28;20385;-72
2022/07/02 10:51:19;;;;;;;2.85;0.20;;;31.20;38.20;;;;;;4971414;28;20657;-72
2022/07/02 10:53:56;;;;;;;1.67;0.15;;;31.10;40.50;;;;;;4971698;28;20041;-72
2022/07/02 10:56:23;;;;;;;1.40;0.70;;;31.20;42.50;;;;;;4986759;28;20026;-72
2022/07/02 10:58:49;;;;;;;0.30;0.17;;;32.10;41.70;;;;;;4965176;28;20429;-72
2022/07/02 11:01:17;;;;;;;2.03;0.30;;;31.60;36.90;;;;;;4983280;28;20481;-72
2022/07/02 11:03:53;;;;;;;0.93;0.10;;;30.90;35.20;;;;;;4987996;28;20396;-72
2022/07/02 11:06:32;;;;;;;0.93;0.20;;;29.30;39.90;;;;;;4991807;28;20030;-72
2022/07/02 11:09:01;;;;;;;1.88;0.20;;;28.20;43.50;;;;;;4992232;28;20109;-72
2022/07/02 11:11:35;;;;;;;2.38;0.20;;;28.10;44.10;;;;;;4974808;28;20026;-73
2022/07/02 11:14:05;;;;;;;1.17;0.10;;;28.50;44.20;;;;;;4987183;28;20363;-72
2022/07/02 11:16:34;;;;;;;1.45;0.60;;;29.10;44.60;;;;;;4982730;28;20037;-72
2022/07/02 11:18:59;;;;;;;2.13;0.20;;;29.10;41.90;;;;;;4969453;28;20045;-72
2022/07/02 11:21:26;;;;;;;1.75;0.20;;;28.50;40.80;;;;;;4984093;28;20034;-72
2022/07/02 11:23:52;;;;;;;2.05;0.30;;;28.30;51.00;;;;;;4968492;28;20468;-72
2022/07/02 11:26:28;;;;;;;1.70;0.20;;;27.90;47.10;;;;;;4988799;28;20030;-72
2022/07/02 11:28:54;;;;;;;2.30;0.30;;;28.40;50.80;;;;;;4990849;28;20516;-72
2022/07/02 11:31:23;;;;;;;1.67;0.13;;;28.80;45.30;;;;;;4979948;28;20457;-73
2022/07/02 11:33:54;;;;;;;3.35;0.30;;;28.60;43.20;;;;;;4981504;28;20040;-73
2022/07/02 11:36:21;;;;;;;1.42;0.20;;;28.10;46.20;;;;;;4992739;28;20037;-75
2022/07/02 11:38:49;;;;;;;1.23;0.20;;;28.20;48.20;;;;;;4984621;28;20033;-75
2022/07/02 11:41:19;;;;;;;2.33;0.50;;;28.10;47.70;;;;;;4974080;28;20034;-76
2022/07/02 11:43:46;;;;;;;5.45;0.50;;;27.70;56.40;;;;;;4982423;28;20294;-75
2022/07/02 11:46:13;;;;;;;1.83;0.20;;;27.00;53.30;;;;;;4976668;28;20034;-75
2022/07/02 11:48:39;;;;;;;1.52;0.57;;;26.60;49.80;;;;;;4997412;28;20041;-76
2022/07/02 11:51:05;;;;;;;3.42;0.40;;;25.90;55.50;;;;;;4969090;28;20038;-75
2022/07/02 11:53:31;;;;;;;1.52;0.30;;;25.70;69.00;;;;;;4983481;28;20039;-75
2022/07/02 11:56:08;;;;;;;1.52;0.32;;;25.50;56.70;;;;;;4988646;28;20105;-75
2022/07/02 11:58:53;;;;;;;0.63;0.20;;;25.40;56.70;;;;;;4986645;28;20062;-75
2022/07/02 12:01:31;;;;;;;2.72;0.40;;;25.30;55.10;;;;;;4971329;28;20500;-75
2022/07/02 12:04:02;;;;;;;2.40;0.32;;;25.20;56.40;;;;;;4978855;28;20042;-74
2022/07/02 12:06:34;;;;;;;1.85;0.30;;;25.30;66.90;;;;;;4985360;28;20029;-75
2022/07/02 12:09:01;;;;;;;3.90;0.43;;;25.20;63.40;;;;;;4971272;28;20133;-74
2022/07/02 12:11:27;;;;;;;3.15;0.90;;;25.40;64.70;;;;;;4970598;28;20029;-75
2022/07/02 12:13:54;;;;;;;3.13;0.30;;;25.80;64.90;;;;;;4988148;28;20132;-73
2022/07/02 12:16:25;;;;;;;3.30;0.30;;;25.60;60.00;;;;;;4995973;28;20026;-73
2022/07/02 12:19:17;;;;;;;0.63;0.37;;;25.20;60.70;;;;;;4986591;28;20038;-72
2022/07/02 12:21:45;;;;;;;1.83;0.45;;;24.90;53.20;;;;;;4988258;28;20111;-73
2022/07/02 12:24:50;;;;;;;1.52;0.30;;;24.70;56.20;;;;;;4978752;28;20404;-76
2022/07/02 12:27:15;;;;;;;1.30;0.28;;;24.70;63.30;;;;;;4942396;28;20042;-75
2022/07/02 12:29:53;;;;;;;3.55;0.40;;;24.30;57.20;;;;;;4969057;28;20450;-75
2022/07/02 12:32:22;;;;;;;3.42;0.35;;;24.40;65.50;;;;;;4989973;28;20044;-74
2022/07/02 12:34:53;;;;;;;1.83;0.20;;;24.60;62.20;;;;;;4990645;28;20028;-75
2022/07/02 12:37:19;;;;;;;3.67;0.40;;;24.60;63.30;;;;;;4990521;28;20036;-72
2022/07/02 12:39:45;;;;;;;3.05;0.32;;;25.10;69.00;;;;;;4993513;28;20058;-75
2022/07/02 12:42:16;;;;;;;2.13;0.20;;;25.60;64.00;;;;;;4993919;28;20064;-75
2022/07/02 12:45:05;;;;;;;3.53;0.70;;;25.30;52.70;;;;;;4981083;28;20208;-75
2022/07/02 12:47:31;;;;;;;1.35;0.47;;;24.90;57.10;;;;;;4995160;28;20484;-76
2022/07/02 12:50:14;;;;;;;1.95;0.25;;;25.30;59.70;;;;;;4993671;28;20038;-75
2022/07/02 12:52:53;;;;;;;2.13;0.25;;;25.30;50.60;;;;;;4976472;28;20109;-75